sensor_id;sensor_type;location;lat;lon;timestamp;P1;durP1;ratioP1;P2;durP2;ratioP2
11171;SDS011;5642;50.830;12.082;2022-11-20T00:01:28;10.10;;;7.57;;
11171;SDS011;5642;50.830;12.082;2022-11-20T00:03:55;9.27;;;7.03;;
11171;SDS011;5642;50.830;12.082;2022-11-20T00:06:26;9.53;;;7.33;;
11171;SDS011;5642;50.830;12.082;2022-11-20T00:08:56;8.23;;;6.63;;
11171;SDS011;5642;50.830;12.082;2022-11-20T00:11:26;9.13;;;7.27;;
11171;SDS011;5642;50.830;12.082;2022-11-20T00:13:54;9.10;;;7.30;;
11171;SDS011;5642;50.830;12.082;2022-11-20T00:16:26;7.97;;;6.47;;
11171;SDS011;5642;50.830;12.082;2022-11-20T00:18:54;8.67;;;6.40;;
11171;SDS011;5642;50.830;12.082;2022-11-20T00:21:21;7.97;;;6.23;;
11171;SDS011;5642;50.830;12.082;2022-11-20T00:23:49;7.67;;;6.20;;
11171;SDS011;5642;50.830;12.082;2022-11-20T00:26:17;8.00;;;6.60;;
11171;SDS011;5642;50.830;12.082;2022-11-20T00:28:49;8.57;;;6.40;;
11171;SDS011;5642;50.830;12.082;2022-11-20T00:31:19;8.20;;;6.47;;
11171;SDS011;5642;50.830;12.082;2022-11-20T00:33:46;8.30;;;6.33;;
11171;SDS011;5642;50.830;12.082;2022-11-20T00:36:17;7.90;;;6.70;;
11171;SDS011;5642;50.830;12.082;2022-11-20T00:38:45;7.53;;;6.27;;
11171;SDS011;5642;50.830;12.082;2022-11-20T00:41:11;8.33;;;6.30;;
11171;SDS011;5642;50.830;12.082;2022-11-20T00:43:41;8.20;;;6.30;;
11171;SDS011;5642;50.830;12.082;2022-11-20T00:46:17;8.87;;;6.63;;
11171;SDS011;5642;50.830;12.082;2022-11-20T00:48:45;9.00;;;7.00;;
11171;SDS011;5642;50.830;12.082;2022-11-20T00:51:12;9.73;;;7.07;;
11171;SDS011;5642;50.830;12.082;2022-11-20T00:53:40;9.97;;;6.77;;
11171;SDS011;5642;50.830;12.082;2022-11-20T00:56:07;8.17;;;6.60;;
11171;SDS011;5642;50.830;12.082;2022-11-20T00:58:37;8.27;;;6.33;;
11171;SDS011;5642;50.830;12.082;2022-11-20T01:01:11;8.50;;;6.50;;
11171;SDS011;5642;50.830;12.082;2022-11-20T01:03:40;9.97;;;6.60;;
11171;SDS011;5642;50.830;12.082;2022-11-20T01:06:12;9.70;;;6.60;;
11171;SDS011;5642;50.830;12.082;2022-11-20T01:08:40;8.20;;;6.33;;
11171;SDS011;5642;50.830;12.082;2022-11-20T01:11:08;8.63;;;6.90;;
11171;SDS011;5642;50.830;12.082;2022-11-20T01:13:36;8.33;;;6.63;;
11171;SDS011;5642;50.830;12.082;2022-11-20T01:16:06;8.07;;;6.03;;
11171;SDS011;5642;50.830;12.082;2022-11-20T01:18:37;8.20;;;6.43;;
11171;SDS011;5642;50.830;12.082;2022-11-20T01:21:07;8.43;;;6.37;;
11171;SDS011;5642;50.830;12.082;2022-11-20T01:23:36;8.63;;;6.90;;
11171;SDS011;5642;50.830;12.082;2022-11-20T01:26:04;9.43;;;6.67;;
11171;SDS011;5642;50.830;12.082;2022-11-20T01:28:32;10.50;;;7.53;;
11171;SDS011;5642;50.830;12.082;2022-11-20T01:30:59;9.13;;;7.10;;
11171;SDS011;5642;50.830;12.082;2022-11-20T01:33:25;8.83;;;6.67;;
11171;SDS011;5642;50.830;12.082;2022-11-20T01:35:52;7.97;;;6.57;;
11171;SDS011;5642;50.830;12.082;2022-11-20T01:38:18;8.83;;;6.67;;
11171;SDS011;5642;50.830;12.082;2022-11-20T01:40:53;8.07;;;6.90;;
11171;SDS011;5642;50.830;12.082;2022-11-20T01:43:20;7.87;;;6.60;;
11171;SDS011;5642;50.830;12.082;2022-11-20T01:48:25;7.87;;;6.37;;
11171;SDS011;5642;50.830;12.082;2022-11-20T01:50:55;8.47;;;6.40;;
11171;SDS011;5642;50.830;12.082;2022-11-20T01:53:25;8.43;;;6.63;;
11171;SDS011;5642;50.830;12.082;2022-11-20T01:55:59;7.97;;;6.20;;
11171;SDS011;5642;50.830;12.082;2022-11-20T01:58:28;8.20;;;5.90;;
11171;SDS011;5642;50.830;12.082;2022-11-20T02:00:58;8.03;;;6.17;;
11171;SDS011;5642;50.830;12.082;2022-11-20T02:03:25;7.03;;;5.93;;
11171;SDS011;5642;50.830;12.082;2022-11-20T02:05:55;8.07;;;6.53;;
11171;SDS011;5642;50.830;12.082;2022-11-20T02:08:29;8.63;;;6.53;;
11171;SDS011;5642;50.830;12.082;2022-11-20T02:10:56;7.53;;;6.07;;
11171;SDS011;5642;50.830;12.082;2022-11-20T02:13:22;8.57;;;5.97;;
11171;SDS011;5642;50.830;12.082;2022-11-20T02:16:09;7.73;;;6.00;;
11171;SDS011;5642;50.830;12.082;2022-11-20T02:18:45;9.13;;;6.70;;
11171;SDS011;5642;50.830;12.082;2022-11-20T02:23:53;7.73;;;6.00;;
11171;SDS011;5642;50.830;12.082;2022-11-20T02:26:22;8.30;;;6.07;;
11171;SDS011;5642;50.830;12.082;2022-11-20T02:28:53;7.90;;;6.23;;
11171;SDS011;5642;50.830;12.082;2022-11-20T02:31:20;6.90;;;5.13;;
11171;SDS011;5642;50.830;12.082;2022-11-20T02:33:46;8.83;;;6.47;;
11171;SDS011;5642;50.830;12.082;2022-11-20T02:36:14;8.00;;;6.03;;
11171;SDS011;5642;50.830;12.082;2022-11-20T02:38:41;8.10;;;6.07;;
11171;SDS011;5642;50.830;12.082;2022-11-20T02:41:09;7.50;;;6.03;;
11171;SDS011;5642;50.830;12.082;2022-11-20T02:43:35;8.13;;;6.17;;
11171;SDS011;5642;50.830;12.082;2022-11-20T02:46:01;7.83;;;6.07;;
11171;SDS011;5642;50.830;12.082;2022-11-20T02:48:27;7.23;;;5.60;;
11171;SDS011;5642;50.830;12.082;2022-11-20T02:50:53;7.33;;;5.77;;
11171;SDS011;5642;50.830;12.082;2022-11-20T02:53:19;7.87;;;6.03;;
11171;SDS011;5642;50.830;12.082;2022-11-20T02:55:45;8.17;;;5.83;;
11171;SDS011;5642;50.830;12.082;2022-11-20T02:58:11;7.87;;;5.83;;
11171;SDS011;5642;50.830;12.082;2022-11-20T03:00:37;8.70;;;6.23;;
11171;SDS011;5642;50.830;12.082;2022-11-20T03:03:03;8.40;;;6.23;;
11171;SDS011;5642;50.830;12.082;2022-11-20T03:05:29;8.77;;;6.63;;
11171;SDS011;5642;50.830;12.082;2022-11-20T03:07:55;8.87;;;6.80;;
11171;SDS011;5642;50.830;12.082;2022-11-20T03:10:22;10.07;;;7.50;;
11171;SDS011;5642;50.830;12.082;2022-11-20T03:12:52;10.10;;;7.47;;
11171;SDS011;5642;50.830;12.082;2022-11-20T03:15:19;11.60;;;7.40;;
11171;SDS011;5642;50.830;12.082;2022-11-20T03:17:46;10.93;;;7.47;;
11171;SDS011;5642;50.830;12.082;2022-11-20T03:20:12;10.77;;;7.33;;
11171;SDS011;5642;50.830;12.082;2022-11-20T03:22:38;9.53;;;7.57;;
11171;SDS011;5642;50.830;12.082;2022-11-20T03:25:04;9.13;;;7.00;;
11171;SDS011;5642;50.830;12.082;2022-11-20T03:27:34;9.83;;;7.50;;
11171;SDS011;5642;50.830;12.082;2022-11-20T03:30:00;9.63;;;7.40;;
11171;SDS011;5642;50.830;12.082;2022-11-20T03:32:27;8.27;;;7.00;;
11171;SDS011;5642;50.830;12.082;2022-11-20T03:34:53;9.20;;;6.87;;
11171;SDS011;5642;50.830;12.082;2022-11-20T03:37:19;8.63;;;6.63;;
11171;SDS011;5642;50.830;12.082;2022-11-20T03:39:45;10.60;;;6.73;;
11171;SDS011;5642;50.830;12.082;2022-11-20T03:42:11;7.80;;;6.07;;
11171;SDS011;5642;50.830;12.082;2022-11-20T03:44:56;7.23;;;5.87;;
11171;SDS011;5642;50.830;12.082;2022-11-20T03:47:22;8.23;;;6.07;;
11171;SDS011;5642;50.830;12.082;2022-11-20T03:49:49;8.00;;;6.43;;
11171;SDS011;5642;50.830;12.082;2022-11-20T03:52:15;7.60;;;5.90;;
11171;SDS011;5642;50.830;12.082;2022-11-20T03:54:41;6.80;;;5.73;;
11171;SDS011;5642;50.830;12.082;2022-11-20T03:57:07;8.00;;;6.00;;
11171;SDS011;5642;50.830;12.082;2022-11-20T03:59:33;7.33;;;5.90;;
11171;SDS011;5642;50.830;12.082;2022-11-20T04:01:59;7.13;;;5.60;;
11171;SDS011;5642;50.830;12.082;2022-11-20T04:04:25;8.53;;;6.27;;
11171;SDS011;5642;50.830;12.082;2022-11-20T04:06:51;7.57;;;5.97;;
11171;SDS011;5642;50.830;12.082;2022-11-20T04:09:17;7.33;;;5.70;;
11171;SDS011;5642;50.830;12.082;2022-11-20T04:11:43;6.77;;;5.57;;
11171;SDS011;5642;50.830;12.082;2022-11-20T04:14:13;6.87;;;5.67;;
11171;SDS011;5642;50.830;12.082;2022-11-20T04:16:41;8.27;;;6.20;;
11171;SDS011;5642;50.830;12.082;2022-11-20T04:19:15;6.60;;;5.33;;
11171;SDS011;5642;50.830;12.082;2022-11-20T04:21:42;6.77;;;5.33;;
11171;SDS011;5642;50.830;12.082;2022-11-20T04:24:09;7.50;;;5.73;;
11171;SDS011;5642;50.830;12.082;2022-11-20T04:26:38;6.27;;;5.27;;
11171;SDS011;5642;50.830;12.082;2022-11-20T04:29:05;7.33;;;5.43;;
11171;SDS011;5642;50.830;12.082;2022-11-20T04:31:32;7.33;;;5.57;;
11171;SDS011;5642;50.830;12.082;2022-11-20T04:33:59;7.17;;;5.63;;
11171;SDS011;5642;50.830;12.082;2022-11-20T04:36:28;6.53;;;5.17;;
11171;SDS011;5642;50.830;12.082;2022-11-20T04:38:55;6.93;;;5.43;;
11171;SDS011;5642;50.830;12.082;2022-11-20T04:41:23;6.97;;;5.33;;
11171;SDS011;5642;50.830;12.082;2022-11-20T04:43:51;7.70;;;5.50;;
11171;SDS011;5642;50.830;12.082;2022-11-20T04:46:19;8.03;;;5.40;;
11171;SDS011;5642;50.830;12.082;2022-11-20T04:48:46;6.83;;;5.30;;
11171;SDS011;5642;50.830;12.082;2022-11-20T04:51:13;7.20;;;5.40;;
11171;SDS011;5642;50.830;12.082;2022-11-20T04:53:39;7.40;;;5.60;;
11171;SDS011;5642;50.830;12.082;2022-11-20T04:56:06;7.17;;;5.50;;
11171;SDS011;5642;50.830;12.082;2022-11-20T04:58:33;6.97;;;5.47;;
11171;SDS011;5642;50.830;12.082;2022-11-20T05:01:03;6.07;;;5.47;;
11171;SDS011;5642;50.830;12.082;2022-11-20T05:03:31;6.87;;;5.63;;
11171;SDS011;5642;50.830;12.082;2022-11-20T05:06:01;6.70;;;5.30;;
11171;SDS011;5642;50.830;12.082;2022-11-20T05:08:29;7.47;;;5.80;;
11171;SDS011;5642;50.830;12.082;2022-11-20T05:11:07;6.63;;;5.23;;
11171;SDS011;5642;50.830;12.082;2022-11-20T05:13:34;5.83;;;4.60;;
11171;SDS011;5642;50.830;12.082;2022-11-20T05:16:02;6.90;;;5.53;;
11171;SDS011;5642;50.830;12.082;2022-11-20T05:18:38;7.60;;;5.50;;
11171;SDS011;5642;50.830;12.082;2022-11-20T05:21:05;6.90;;;5.77;;
11171;SDS011;5642;50.830;12.082;2022-11-20T05:23:32;7.07;;;5.60;;
11171;SDS011;5642;50.830;12.082;2022-11-20T05:25:59;7.43;;;5.77;;
11171;SDS011;5642;50.830;12.082;2022-11-20T05:28:26;7.60;;;5.90;;
11171;SDS011;5642;50.830;12.082;2022-11-20T05:30:53;5.83;;;4.90;;
11171;SDS011;5642;50.830;12.082;2022-11-20T05:33:20;6.40;;;5.47;;
11171;SDS011;5642;50.830;12.082;2022-11-20T05:35:46;6.37;;;5.10;;
11171;SDS011;5642;50.830;12.082;2022-11-20T05:38:13;7.43;;;5.60;;
11171;SDS011;5642;50.830;12.082;2022-11-20T05:40:40;7.70;;;5.37;;
11171;SDS011;5642;50.830;12.082;2022-11-20T05:43:06;6.80;;;5.13;;
11171;SDS011;5642;50.830;12.082;2022-11-20T05:45:32;5.63;;;4.90;;
11171;SDS011;5642;50.830;12.082;2022-11-20T05:47:59;6.23;;;4.97;;
11171;SDS011;5642;50.830;12.082;2022-11-20T05:50:28;6.97;;;5.13;;
11171;SDS011;5642;50.830;12.082;2022-11-20T05:52:57;6.47;;;5.37;;
11171;SDS011;5642;50.830;12.082;2022-11-20T05:55:25;6.27;;;5.13;;
11171;SDS011;5642;50.830;12.082;2022-11-20T05:57:52;6.53;;;5.27;;
11171;SDS011;5642;50.830;12.082;2022-11-20T06:00:20;7.07;;;5.67;;
11171;SDS011;5642;50.830;12.082;2022-11-20T06:02:46;7.13;;;5.20;;
11171;SDS011;5642;50.830;12.082;2022-11-20T06:05:12;6.03;;;4.67;;
11171;SDS011;5642;50.830;12.082;2022-11-20T06:07:38;5.67;;;4.87;;
11171;SDS011;5642;50.830;12.082;2022-11-20T06:10:04;6.60;;;4.90;;
11171;SDS011;5642;50.830;12.082;2022-11-20T06:12:31;6.03;;;4.97;;
11171;SDS011;5642;50.830;12.082;2022-11-20T06:14:58;6.13;;;5.00;;
11171;SDS011;5642;50.830;12.082;2022-11-20T06:17:25;6.10;;;4.93;;
11171;SDS011;5642;50.830;12.082;2022-11-20T06:19:51;6.03;;;4.83;;
11171;SDS011;5642;50.830;12.082;2022-11-20T06:22:17;5.67;;;4.33;;
11171;SDS011;5642;50.830;12.082;2022-11-20T06:24:43;6.83;;;5.03;;
11171;SDS011;5642;50.830;12.082;2022-11-20T06:27:09;6.77;;;5.13;;
11171;SDS011;5642;50.830;12.082;2022-11-20T06:29:34;5.57;;;4.73;;
11171;SDS011;5642;50.830;12.082;2022-11-20T06:32:00;6.03;;;4.83;;
11171;SDS011;5642;50.830;12.082;2022-11-20T06:34:27;6.00;;;4.87;;
11171;SDS011;5642;50.830;12.082;2022-11-20T06:36:53;5.50;;;4.63;;
11171;SDS011;5642;50.830;12.082;2022-11-20T06:39:19;6.70;;;4.73;;
11171;SDS011;5642;50.830;12.082;2022-11-20T06:41:45;6.87;;;4.80;;
11171;SDS011;5642;50.830;12.082;2022-11-20T06:44:11;5.97;;;4.80;;
11171;SDS011;5642;50.830;12.082;2022-11-20T06:46:37;5.07;;;4.57;;
11171;SDS011;5642;50.830;12.082;2022-11-20T06:49:04;5.97;;;4.53;;
11171;SDS011;5642;50.830;12.082;2022-11-20T06:51:30;6.00;;;4.73;;
11171;SDS011;5642;50.830;12.082;2022-11-20T06:53:56;5.63;;;4.60;;
11171;SDS011;5642;50.830;12.082;2022-11-20T06:56:22;6.07;;;4.83;;
11171;SDS011;5642;50.830;12.082;2022-11-20T06:58:48;5.97;;;4.63;;
11171;SDS011;5642;50.830;12.082;2022-11-20T07:01:14;6.07;;;4.97;;
11171;SDS011;5642;50.830;12.082;2022-11-20T07:03:40;6.23;;;5.10;;
11171;SDS011;5642;50.830;12.082;2022-11-20T07:06:08;6.87;;;5.23;;
11171;SDS011;5642;50.830;12.082;2022-11-20T07:08:35;5.70;;;4.97;;
11171;SDS011;5642;50.830;12.082;2022-11-20T07:11:02;6.87;;;5.27;;
11171;SDS011;5642;50.830;12.082;2022-11-20T07:13:31;5.80;;;4.70;;
11171;SDS011;5642;50.830;12.082;2022-11-20T07:16:02;7.57;;;5.53;;
11171;SDS011;5642;50.830;12.082;2022-11-20T07:18:29;6.70;;;5.33;;
11171;SDS011;5642;50.830;12.082;2022-11-20T07:20:59;7.50;;;5.60;;
11171;SDS011;5642;50.830;12.082;2022-11-20T07:23:30;7.17;;;5.17;;
11171;SDS011;5642;50.830;12.082;2022-11-20T07:25:56;5.87;;;4.73;;
11171;SDS011;5642;50.830;12.082;2022-11-20T07:28:22;6.73;;;5.10;;
11171;SDS011;5642;50.830;12.082;2022-11-20T07:30:49;6.13;;;4.93;;
11171;SDS011;5642;50.830;12.082;2022-11-20T07:33:17;6.40;;;5.13;;
11171;SDS011;5642;50.830;12.082;2022-11-20T07:35:43;7.50;;;5.57;;
11171;SDS011;5642;50.830;12.082;2022-11-20T07:38:10;6.23;;;4.93;;
11171;SDS011;5642;50.830;12.082;2022-11-20T07:40:36;6.70;;;5.40;;
11171;SDS011;5642;50.830;12.082;2022-11-20T07:43:02;7.87;;;5.77;;
11171;SDS011;5642;50.830;12.082;2022-11-20T07:45:29;7.27;;;5.63;;
11171;SDS011;5642;50.830;12.082;2022-11-20T07:47:55;7.87;;;5.80;;
11171;SDS011;5642;50.830;12.082;2022-11-20T07:50:20;7.77;;;6.03;;
11171;SDS011;5642;50.830;12.082;2022-11-20T07:52:47;7.27;;;6.30;;
11171;SDS011;5642;50.830;12.082;2022-11-20T07:55:13;9.40;;;6.73;;
11171;SDS011;5642;50.830;12.082;2022-11-20T07:57:39;8.00;;;6.10;;
11171;SDS011;5642;50.830;12.082;2022-11-20T08:00:06;8.23;;;6.40;;
11171;SDS011;5642;50.830;12.082;2022-11-20T08:02:38;7.70;;;5.90;;
11171;SDS011;5642;50.830;12.082;2022-11-20T08:05:05;8.17;;;6.10;;
11171;SDS011;5642;50.830;12.082;2022-11-20T08:07:40;7.47;;;6.17;;
11171;SDS011;5642;50.830;12.082;2022-11-20T08:10:09;7.83;;;5.80;;
11171;SDS011;5642;50.830;12.082;2022-11-20T08:12:43;7.90;;;6.10;;
11171;SDS011;5642;50.830;12.082;2022-11-20T08:15:28;7.50;;;6.00;;
11171;SDS011;5642;50.830;12.082;2022-11-20T08:18:01;7.93;;;6.30;;
11171;SDS011;5642;50.830;12.082;2022-11-20T08:20:28;8.23;;;6.23;;
11171;SDS011;5642;50.830;12.082;2022-11-20T08:23:00;8.13;;;6.10;;
11171;SDS011;5642;50.830;12.082;2022-11-20T08:25:30;10.33;;;6.90;;
11171;SDS011;5642;50.830;12.082;2022-11-20T08:27:59;8.10;;;6.23;;
11171;SDS011;5642;50.830;12.082;2022-11-20T08:30:27;9.97;;;6.77;;
11171;SDS011;5642;50.830;12.082;2022-11-20T08:32:54;8.93;;;6.47;;
11171;SDS011;5642;50.830;12.082;2022-11-20T08:35:21;8.17;;;6.40;;
11171;SDS011;5642;50.830;12.082;2022-11-20T08:37:47;8.67;;;6.73;;
11171;SDS011;5642;50.830;12.082;2022-11-20T08:40:14;8.20;;;6.57;;
11171;SDS011;5642;50.830;12.082;2022-11-20T08:42:47;7.63;;;6.30;;
11171;SDS011;5642;50.830;12.082;2022-11-20T08:45:14;8.50;;;6.97;;
11171;SDS011;5642;50.830;12.082;2022-11-20T08:47:41;8.13;;;6.47;;
11171;SDS011;5642;50.830;12.082;2022-11-20T08:50:08;7.47;;;6.27;;
11171;SDS011;5642;50.830;12.082;2022-11-20T08:52:38;8.47;;;6.93;;
11171;SDS011;5642;50.830;12.082;2022-11-20T08:55:05;9.77;;;6.70;;
11171;SDS011;5642;50.830;12.082;2022-11-20T08:57:32;8.10;;;6.40;;
11171;SDS011;5642;50.830;12.082;2022-11-20T09:00:03;9.33;;;7.13;;
11171;SDS011;5642;50.830;12.082;2022-11-20T09:02:30;8.10;;;6.50;;
11171;SDS011;5642;50.830;12.082;2022-11-20T09:05:02;7.67;;;6.83;;
11171;SDS011;5642;50.830;12.082;2022-11-20T09:07:28;9.20;;;7.37;;
11171;SDS011;5642;50.830;12.082;2022-11-20T09:09:55;7.97;;;6.53;;
11171;SDS011;5642;50.830;12.082;2022-11-20T09:12:21;9.17;;;7.77;;
11171;SDS011;5642;50.830;12.082;2022-11-20T09:14:47;9.93;;;7.87;;
11171;SDS011;5642;50.830;12.082;2022-11-20T09:17:14;8.57;;;7.00;;
11171;SDS011;5642;50.830;12.082;2022-11-20T09:19:40;8.67;;;6.87;;
11171;SDS011;5642;50.830;12.082;2022-11-20T09:22:07;10.13;;;7.23;;
11171;SDS011;5642;50.830;12.082;2022-11-20T09:24:34;9.73;;;7.20;;
11171;SDS011;5642;50.830;12.082;2022-11-20T09:27:04;8.20;;;6.50;;
11171;SDS011;5642;50.830;12.082;2022-11-20T09:29:30;9.20;;;6.87;;
11171;SDS011;5642;50.830;12.082;2022-11-20T09:31:56;8.77;;;7.30;;
11171;SDS011;5642;50.830;12.082;2022-11-20T09:34:23;7.90;;;6.67;;
11171;SDS011;5642;50.830;12.082;2022-11-20T09:36:49;8.50;;;6.87;;
11171;SDS011;5642;50.830;12.082;2022-11-20T09:39:15;7.37;;;6.40;;
11171;SDS011;5642;50.830;12.082;2022-11-20T09:47:11;8.10;;;6.47;;
11171;SDS011;5642;50.830;12.082;2022-11-20T09:53:01;8.17;;;6.57;;
11171;SDS011;5642;50.830;12.082;2022-11-20T09:55:35;8.63;;;6.63;;
11171;SDS011;5642;50.830;12.082;2022-11-20T09:58:05;8.20;;;6.78;;
11171;SDS011;5642;50.830;12.082;2022-11-20T10:00:34;8.57;;;6.85;;
11171;SDS011;5642;50.830;12.082;2022-11-20T10:03:06;8.17;;;6.50;;
11171;SDS011;5642;50.830;12.082;2022-11-20T10:05:51;8.83;;;6.93;;
11171;SDS011;5642;50.830;12.082;2022-11-20T10:17:15;8.20;;;6.60;;
11171;SDS011;5642;50.830;12.082;2022-11-20T10:28:00;7.73;;;6.00;;
11171;SDS011;5642;50.830;12.082;2022-11-20T10:30:34;7.70;;;6.77;;
11171;SDS011;5642;50.830;12.082;2022-11-20T10:33:12;7.70;;;6.40;;
11171;SDS011;5642;50.830;12.082;2022-11-20T10:35:55;7.55;;;6.60;;
11171;SDS011;5642;50.830;12.082;2022-11-20T10:38:25;7.70;;;6.28;;
11171;SDS011;5642;50.830;12.082;2022-11-20T10:41:01;7.63;;;6.80;;
11171;SDS011;5642;50.830;12.082;2022-11-20T10:43:47;7.75;;;6.32;;
11171;SDS011;5642;50.830;12.082;2022-11-20T10:46:20;7.05;;;6.05;;
11171;SDS011;5642;50.830;12.082;2022-11-20T10:48:47;7.28;;;6.43;;
11171;SDS011;5642;50.830;12.082;2022-11-20T10:54:06;7.47;;;6.65;;
11171;SDS011;5642;50.830;12.082;2022-11-20T10:56:53;6.40;;;5.50;;
11171;SDS011;5642;50.830;12.082;2022-11-20T11:02:22;6.53;;;5.50;;
11171;SDS011;5642;50.830;12.082;2022-11-20T11:04:50;8.10;;;6.65;;
11171;SDS011;5642;50.830;12.082;2022-11-20T11:09:54;6.57;;;5.88;;
11171;SDS011;5642;50.830;12.082;2022-11-20T11:12:22;6.80;;;6.00;;
11171;SDS011;5642;50.830;12.082;2022-11-20T11:14:51;6.65;;;5.95;;
11171;SDS011;5642;50.830;12.082;2022-11-20T11:17:23;7.05;;;6.20;;
11171;SDS011;5642;50.830;12.082;2022-11-20T11:20:14;7.05;;;6.20;;
11171;SDS011;5642;50.830;12.082;2022-11-20T11:22:46;7.28;;;6.30;;
11171;SDS011;5642;50.830;12.082;2022-11-20T11:25:27;6.78;;;5.95;;
11171;SDS011;5642;50.830;12.082;2022-11-20T11:27:57;6.05;;;5.45;;
11171;SDS011;5642;50.830;12.082;2022-11-20T11:30:25;7.00;;;6.20;;
11171;SDS011;5642;50.830;12.082;2022-11-20T11:33:04;8.05;;;6.18;;
11171;SDS011;5642;50.830;12.082;2022-11-20T11:35:32;6.97;;;6.07;;
11171;SDS011;5642;50.830;12.082;2022-11-20T11:38:06;8.10;;;6.43;;
11171;SDS011;5642;50.830;12.082;2022-11-20T11:40:39;7.00;;;6.30;;
11171;SDS011;5642;50.830;12.082;2022-11-20T11:43:15;7.18;;;5.90;;
11171;SDS011;5642;50.830;12.082;2022-11-20T11:46:25;6.82;;;6.03;;
11171;SDS011;5642;50.830;12.082;2022-11-20T11:54:02;8.48;;;6.43;;
11171;SDS011;5642;50.830;12.082;2022-11-20T11:56:39;7.15;;;5.88;;
11171;SDS011;5642;50.830;12.082;2022-11-20T11:59:06;6.75;;;6.03;;
11171;SDS011;5642;50.830;12.082;2022-11-20T12:06:43;6.65;;;5.95;;
11171;SDS011;5642;50.830;12.082;2022-11-20T12:09:13;6.80;;;6.07;;
11171;SDS011;5642;50.830;12.082;2022-11-20T12:16:53;6.57;;;5.75;;
11171;SDS011;5642;50.830;12.082;2022-11-20T12:19:24;6.90;;;6.20;;
11171;SDS011;5642;50.830;12.082;2022-11-20T12:24:42;7.35;;;6.28;;
11171;SDS011;5642;50.830;12.082;2022-11-20T12:30:10;6.75;;;5.95;;
11171;SDS011;5642;50.830;12.082;2022-11-20T12:35:25;7.10;;;6.13;;
11171;SDS011;5642;50.830;12.082;2022-11-20T12:38:21;7.10;;;6.30;;
11171;SDS011;5642;50.830;12.082;2022-11-20T12:41:11;7.82;;;6.20;;
11171;SDS011;5642;50.830;12.082;2022-11-20T12:47:13;7.53;;;6.70;;
11171;SDS011;5642;50.830;12.082;2022-11-20T12:50:01;7.50;;;6.72;;
11171;SDS011;5642;50.830;12.082;2022-11-20T12:52:35;7.72;;;6.68;;
11171;SDS011;5642;50.830;12.082;2022-11-20T12:55:28;7.68;;;6.70;;
11171;SDS011;5642;50.830;12.082;2022-11-20T12:58:18;6.88;;;6.05;;
11171;SDS011;5642;50.830;12.082;2022-11-20T13:04:21;6.82;;;6.10;;
11171;SDS011;5642;50.830;12.082;2022-11-20T13:07:11;7.43;;;6.45;;
11171;SDS011;5642;50.830;12.082;2022-11-20T13:09:45;7.45;;;6.28;;
11171;SDS011;5642;50.830;12.082;2022-11-20T13:12:18;7.38;;;6.40;;
11171;SDS011;5642;50.830;12.082;2022-11-20T13:20:12;6.05;;;5.18;;
11171;SDS011;5642;50.830;12.082;2022-11-20T13:22:46;6.70;;;5.60;;
11171;SDS011;5642;50.830;12.082;2022-11-20T13:25:23;6.38;;;5.65;;
11171;SDS011;5642;50.830;12.082;2022-11-20T13:27:50;5.95;;;5.35;;
11171;SDS011;5642;50.830;12.082;2022-11-20T13:30:17;5.95;;;5.30;;
11171;SDS011;5642;50.830;12.082;2022-11-20T13:35:26;5.68;;;5.07;;
11171;SDS011;5642;50.830;12.082;2022-11-20T13:38:00;5.78;;;5.18;;
11171;SDS011;5642;50.830;12.082;2022-11-20T13:41:08;5.18;;;4.53;;
11171;SDS011;5642;50.830;12.082;2022-11-20T13:43:47;4.80;;;4.30;;
11171;SDS011;5642;50.830;12.082;2022-11-20T13:46:15;4.55;;;4.15;;
11171;SDS011;5642;50.830;12.082;2022-11-20T13:48:42;5.30;;;4.70;;
11171;SDS011;5642;50.830;12.082;2022-11-20T13:51:15;5.93;;;4.82;;
11171;SDS011;5642;50.830;12.082;2022-11-20T13:57:21;4.68;;;4.03;;
11171;SDS011;5642;50.830;12.082;2022-11-20T14:00:17;4.32;;;3.92;;
11171;SDS011;5642;50.830;12.082;2022-11-20T14:02:52;4.63;;;4.22;;
11171;SDS011;5642;50.830;12.082;2022-11-20T14:05:25;4.55;;;4.15;;
11171;SDS011;5642;50.830;12.082;2022-11-20T14:07:51;4.75;;;4.07;;
11171;SDS011;5642;50.830;12.082;2022-11-20T14:10:19;4.22;;;3.83;;
11171;SDS011;5642;50.830;12.082;2022-11-20T14:12:49;4.97;;;4.15;;
11171;SDS011;5642;50.830;12.082;2022-11-20T14:15:29;5.15;;;4.65;;
11171;SDS011;5642;50.830;12.082;2022-11-20T14:18:10;4.75;;;4.28;;
11171;SDS011;5642;50.830;12.082;2022-11-20T14:20:39;4.32;;;3.90;;
11171;SDS011;5642;50.830;12.082;2022-11-20T14:23:09;4.85;;;4.03;;
11171;SDS011;5642;50.830;12.082;2022-11-20T14:25:37;5.57;;;4.43;;
11171;SDS011;5642;50.830;12.082;2022-11-20T14:28:11;4.72;;;4.30;;
11171;SDS011;5642;50.830;12.082;2022-11-20T14:30:54;4.78;;;4.28;;
11171;SDS011;5642;50.830;12.082;2022-11-20T14:33:22;5.20;;;4.40;;
11171;SDS011;5642;50.830;12.082;2022-11-20T14:35:53;5.47;;;4.82;;
11171;SDS011;5642;50.830;12.082;2022-11-20T14:38:25;4.95;;;4.40;;
11171;SDS011;5642;50.830;12.082;2022-11-20T14:41:07;5.30;;;4.45;;
11171;SDS011;5642;50.830;12.082;2022-11-20T14:43:34;5.97;;;4.82;;
11171;SDS011;5642;50.830;12.082;2022-11-20T14:46:07;5.75;;;4.93;;
11171;SDS011;5642;50.830;12.082;2022-11-20T14:51:22;6.18;;;5.38;;
11171;SDS011;5642;50.830;12.082;2022-11-20T14:53:52;5.68;;;4.90;;
11171;SDS011;5642;50.830;12.082;2022-11-20T14:56:22;5.30;;;4.40;;
11171;SDS011;5642;50.830;12.082;2022-11-20T14:58:56;4.88;;;4.38;;
11171;SDS011;5642;50.830;12.082;2022-11-20T15:01:27;5.00;;;4.50;;
11171;SDS011;5642;50.830;12.082;2022-11-20T15:04:00;4.97;;;4.40;;
11171;SDS011;5642;50.830;12.082;2022-11-20T15:06:32;5.10;;;4.37;;
11171;SDS011;5642;50.830;12.082;2022-11-20T15:08:58;4.60;;;4.17;;
11171;SDS011;5642;50.830;12.082;2022-11-20T15:11:28;5.63;;;4.53;;
11171;SDS011;5642;50.830;12.082;2022-11-20T15:13:58;5.20;;;4.40;;
11171;SDS011;5642;50.830;12.082;2022-11-20T15:16:30;5.67;;;4.77;;
11171;SDS011;5642;50.830;12.082;2022-11-20T15:18:56;5.37;;;4.53;;
11171;SDS011;5642;50.830;12.082;2022-11-20T15:21:23;4.90;;;4.33;;
11171;SDS011;5642;50.830;12.082;2022-11-20T15:23:50;5.40;;;4.40;;
11171;SDS011;5642;50.830;12.082;2022-11-20T15:26:25;5.00;;;4.37;;
11171;SDS011;5642;50.830;12.082;2022-11-20T15:28:55;4.87;;;4.37;;
11171;SDS011;5642;50.830;12.082;2022-11-20T15:31:21;5.00;;;4.50;;
11171;SDS011;5642;50.830;12.082;2022-11-20T15:33:48;6.13;;;4.63;;
11171;SDS011;5642;50.830;12.082;2022-11-20T15:36:15;4.73;;;4.00;;
11171;SDS011;5642;50.830;12.082;2022-11-20T15:38:41;5.03;;;3.87;;
11171;SDS011;5642;50.830;12.082;2022-11-20T15:41:07;4.97;;;4.27;;
11171;SDS011;5642;50.830;12.082;2022-11-20T15:43:34;6.17;;;4.60;;
11171;SDS011;5642;50.830;12.082;2022-11-20T15:46:01;5.23;;;4.73;;
11171;SDS011;5642;50.830;12.082;2022-11-20T15:48:34;5.33;;;4.83;;
11171;SDS011;5642;50.830;12.082;2022-11-20T15:53:39;6.43;;;5.50;;
11171;SDS011;5642;50.830;12.082;2022-11-20T15:56:12;6.80;;;5.53;;
11171;SDS011;5642;50.830;12.082;2022-11-20T15:58:40;7.73;;;6.27;;
11171;SDS011;5642;50.830;12.082;2022-11-20T16:01:11;7.87;;;6.90;;
11171;SDS011;5642;50.830;12.082;2022-11-20T16:03:38;8.17;;;6.47;;
11171;SDS011;5642;50.830;12.082;2022-11-20T16:06:05;8.47;;;6.97;;
11171;SDS011;5642;50.830;12.082;2022-11-20T16:08:32;9.10;;;7.27;;
11171;SDS011;5642;50.830;12.082;2022-11-20T16:10:59;8.90;;;7.23;;
11171;SDS011;5642;50.830;12.082;2022-11-20T16:13:25;11.63;;;9.07;;
11171;SDS011;5642;50.830;12.082;2022-11-20T16:16:32;11.10;;;8.23;;
11171;SDS011;5642;50.830;12.082;2022-11-20T16:18:58;12.13;;;8.87;;
11171;SDS011;5642;50.830;12.082;2022-11-20T16:21:26;11.20;;;9.13;;
11171;SDS011;5642;50.830;12.082;2022-11-20T16:24:00;10.67;;;9.30;;
11171;SDS011;5642;50.830;12.082;2022-11-20T16:26:28;9.70;;;8.43;;
11171;SDS011;5642;50.830;12.082;2022-11-20T16:28:55;9.20;;;6.97;;
11171;SDS011;5642;50.830;12.082;2022-11-20T16:31:23;10.43;;;8.37;;